Time;durP1;ratioP1;P1;durP2;ratioP2;P2;SDS_P1;SDS_P2;PMS_P1;PMS_P2;Temp;Humidity;BMP_temperature;BMP_pressure;BME280_temperature;BME280_humidity;BME280_pressure;Samples;Min_cycle;Max_cycle;Signal;HPM_P1;HPM_P2
2022/01/01 00:01:04;;;;;;;15.13;8.88;;;10.50;99.90;;;;;;5092751;28;20233;-66
2022/01/01 00:03:30;;;;;;;13.98;9.05;;;10.40;99.90;;;;;;5092752;28;20623;-67
2022/01/01 00:05:55;;;;;;;13.43;8.40;;;10.40;99.90;;;;;;5092758;28;20208;-67
2022/01/01 00:08:21;;;;;;;15.45;8.30;;;10.30;99.90;;;;;;5092473;28;20309;-67
2022/01/01 00:11:22;;;;;;;12.68;8.00;;;10.30;99.90;;;;;;5092633;28;20179;-67
2022/01/01 00:13:47;;;;;;;12.15;7.40;;;10.30;99.90;;;;;;5088589;28;20191;-67
2022/01/01 00:16:13;;;;;;;11.50;7.03;;;10.30;99.90;;;;;;5092489;28;20206;-67
2022/01/01 00:18:39;;;;;;;10.32;6.50;;;10.30;99.90;;;;;;5092359;28;20172;-67
2022/01/01 00:21:06;;;;;;;14.07;8.05;;;10.20;99.90;;;;;;5092425;28;20180;-67
2022/01/01 00:23:32;;;;;;;10.00;6.32;;;10.20;99.90;;;;;;5092359;28;20172;-66
2022/01/01 00:25:58;;;;;;;10.25;6.50;;;10.20;99.90;;;;;;5091443;28;20235;-67
2022/01/01 00:28:23;;;;;;;11.98;6.63;;;10.20;99.90;;;;;;5092312;28;20207;-67
2022/01/01 00:30:49;;;;;;;9.73;6.72;;;10.10;99.90;;;;;;5092360;28;20221;-66
2022/01/01 00:33:14;;;;;;;12.55;7.07;;;10.10;99.90;;;;;;5090973;28;20172;-66
2022/01/01 00:35:40;;;;;;;12.02;6.68;;;10.10;99.90;;;;;;5092358;28;20172;-67
2022/01/01 00:38:07;;;;;;;10.52;7.00;;;10.10;99.90;;;;;;5092160;28;20260;-67
2022/01/01 00:40:32;;;;;;;9.60;6.50;;;10.10;99.90;;;;;;5090664;28;20631;-67
2022/01/01 00:43:00;;;;;;;14.32;7.20;;;10.10;99.90;;;;;;5092169;28;20184;-67
2022/01/01 00:45:26;;;;;;;13.20;7.43;;;10.00;99.90;;;;;;5091992;28;20556;-66
2022/01/01 00:47:51;;;;;;;11.73;7.00;;;10.10;99.90;;;;;;5090735;28;20233;-68
2022/01/01 00:50:17;;;;;;;14.40;8.38;;;10.00;99.90;;;;;;5093690;28;20210;-67
2022/01/01 00:52:44;;;;;;;14.75;8.27;;;10.00;99.90;;;;;;5092995;28;20440;-68
2022/01/01 00:55:10;;;;;;;13.23;8.23;;;10.00;99.90;;;;;;5091701;28;20164;-68
2022/01/01 00:57:35;;;;;;;14.73;8.60;;;10.00;99.90;;;;;;5091798;28;20385;-68
2022/01/01 01:00:02;;;;;;;15.00;8.52;;;10.00;99.90;;;;;;5091606;28;20714;-67
2022/01/01 01:02:27;;;;;;;15.38;8.65;;;10.00;99.90;;;;;;5091518;28;20196;-68
2022/01/01 01:04:53;;;;;;;16.83;8.77;;;10.00;99.90;;;;;;5090890;28;20172;-68
2022/01/01 01:07:18;;;;;;;17.38;8.60;;;10.00;99.90;;;;;;5090792;28;20230;-68
2022/01/01 01:09:44;;;;;;;15.93;9.45;;;10.00;99.90;;;;;;5091601;28;20169;-68
2022/01/01 01:12:10;;;;;;;16.27;8.63;;;10.00;99.90;;;;;;5091798;28;20184;-68
2022/01/01 01:14:40;;;;;;;16.40;9.02;;;10.00;99.90;;;;;;5091334;28;20588;-68
2022/01/01 01:17:07;;;;;;;16.92;9.15;;;10.00;99.90;;;;;;5091369;28;20504;-67
2022/01/01 01:19:32;;;;;;;13.88;8.27;;;9.90;99.90;;;;;;5090549;28;20531;-68
2022/01/01 01:21:58;;;;;;;16.10;8.55;;;9.90;99.90;;;;;;5091710;28;20186;-68
2022/01/01 01:24:25;;;;;;;20.30;9.07;;;9.90;99.90;;;;;;5091567;28;20315;-65
2022/01/01 01:26:52;;;;;;;16.20;9.05;;;9.90;99.90;;;;;;5091520;28;20310;-68
2022/01/01 01:29:19;;;;;;;17.77;9.02;;;10.00;99.90;;;;;;5091285;28;20179;-68
2022/01/01 01:31:46;;;;;;;14.88;9.13;;;9.90;99.90;;;;;;5090146;28;20270;-68
2022/01/01 01:34:12;;;;;;;14.95;8.98;;;9.90;99.90;;;;;;5091194;28;20219;-68
2022/01/01 01:36:38;;;;;;;18.20;8.70;;;10.00;99.90;;;;;;5091504;28;20176;-68
2022/01/01 01:39:04;;;;;;;15.75;8.55;;;10.00;99.90;;;;;;5093935;28;20203;-68
2022/01/01 01:41:31;;;;;;;18.13;8.75;;;10.00;99.90;;;;;;5094867;28;20275;-65
2022/01/01 01:43:58;;;;;;;15.55;8.27;;;10.00;99.90;;;;;;5094888;28;20173;-66
2022/01/01 01:46:25;;;;;;;14.73;8.73;;;10.00;99.90;;;;;;5094939;28;20224;-66
2022/01/01 01:48:51;;;;;;;16.13;8.15;;;10.00;99.90;;;;;;5094848;28;20172;-68
2022/01/01 01:51:17;;;;;;;14.57;7.72;;;10.00;99.90;;;;;;5094734;28;20196;-67
2022/01/01 01:53:43;;;;;;;13.15;7.85;;;10.00;99.90;;;;;;5093075;28;20233;-67
2022/01/01 01:56:08;;;;;;;16.75;8.65;;;10.00;99.90;;;;;;5093243;28;20180;-66
2022/01/01 01:58:34;;;;;;;14.02;7.85;;;10.00;99.90;;;;;;5094678;28;20220;-66
2022/01/01 02:01:20;;;;;;;16.02;7.93;;;10.00;99.90;;;;;;5094770;28;20180;-66
2022/01/01 02:03:47;;;;;;;11.68;7.05;;;10.00;99.90;;;;;;5094534;28;20206;-66
2022/01/01 02:06:13;;;;;;;11.88;7.05;;;10.10;99.90;;;;;;5094435;28;20697;-67
2022/01/01 02:08:39;;;;;;;11.88;7.00;;;10.00;99.90;;;;;;5094091;28;20176;-67
2022/01/01 02:11:05;;;;;;;15.57;7.95;;;10.10;99.90;;;;;;5094288;28;20241;-66
2022/01/01 02:13:40;;;;;;;12.77;7.10;;;10.10;99.90;;;;;;5094490;28;20184;-67
2022/01/01 02:18:53;;;;;;;13.82;7.10;;;10.00;99.90;;;;;;5094365;28;20180;-66
2022/01/01 02:21:20;;;;;;;12.60;6.28;;;10.10;99.90;;;;;;5094168;28;20195;-67
2022/01/01 02:23:47;;;;;;;15.73;7.13;;;10.10;99.90;;;;;;5093800;28;20175;-66
2022/01/01 02:26:15;;;;;;;10.43;6.07;;;10.10;99.90;;;;;;5093298;28;20233;-67
2022/01/01 02:28:42;;;;;;;13.20;6.35;;;10.10;99.90;;;;;;5094206;28;20176;-67
2022/01/01 02:31:08;;;;;;;10.60;5.95;;;10.10;99.90;;;;;;5094172;28;20546;-69
2022/01/01 02:33:34;;;;;;;9.98;6.00;;;10.10;99.90;;;;;;5093897;28;20188;-67
2022/01/01 02:36:00;;;;;;;9.52;5.60;;;10.10;99.90;;;;;;5094006;28;20577;-67
2022/01/01 02:38:25;;;;;;;9.43;5.28;;;10.10;99.90;;;;;;5093193;28;20249;-67
2022/01/01 02:40:51;;;;;;;10.98;5.88;;;10.10;99.90;;;;;;5093511;28;20172;-67
2022/01/01 02:43:18;;;;;;;10.98;6.22;;;10.10;99.90;;;;;;5093607;28;20182;-67
2022/01/01 02:45:43;;;;;;;10.45;6.00;;;10.10;99.90;;;;;;5094024;28;20208;-67
2022/01/01 02:48:09;;;;;;;9.80;5.10;;;10.10;99.90;;;;;;5093533;28;20176;-66
2022/01/01 02:50:35;;;;;;;8.10;5.35;;;10.10;99.90;;;;;;5092727;28;20180;-67
2022/01/01 02:53:00;;;;;;;5.03;4.10;;;10.00;99.90;;;;;;5093211;28;20184;-66
2022/01/01 02:55:26;;;;;;;9.00;5.20;;;10.00;99.90;;;;;;5092177;28;20187;-66
2022/01/01 02:57:51;;;;;;;9.02;5.00;;;10.00;99.90;;;;;;5093336;28;20215;-66
2022/01/01 03:00:17;;;;;;;8.77;5.45;;;10.00;99.90;;;;;;5093772;28;20179;-68
2022/01/01 03:02:45;;;;;;;8.25;5.28;;;10.00;99.90;;;;;;5093245;28;20180;-68
2022/01/01 03:05:10;;;;;;;8.73;5.40;;;10.00;99.90;;;;;;5091909;28;20226;-67
2022/01/01 03:07:36;;;;;;;8.05;5.10;;;10.00;99.90;;;;;;5093225;28;20652;-67
2022/01/01 03:10:03;;;;;;;8.35;5.10;;;10.00;99.90;;;;;;5091792;28;20177;-67
2022/01/01 03:12:28;;;;;;;8.05;5.68;;;10.00;99.90;;;;;;5093367;28;20180;-66
2022/01/01 03:14:54;;;;;;;10.02;5.18;;;10.00;99.90;;;;;;5093081;28;20535;-67
2022/01/01 03:17:20;;;;;;;10.45;6.35;;;10.00;99.90;;;;;;5092941;28;20172;-67
2022/01/01 03:19:45;;;;;;;10.07;5.05;;;10.00;99.90;;;;;;5093228;28;20184;-67
2022/01/01 03:22:11;;;;;;;11.13;6.20;;;10.00;99.90;;;;;;5092441;28;20172;-68
2022/01/01 03:24:36;;;;;;;10.65;5.35;;;10.00;99.90;;;;;;5092875;28;20180;-68
2022/01/01 03:27:02;;;;;;;9.32;5.53;;;10.00;99.90;;;;;;5092933;28;20329;-68
2022/01/01 03:29:30;;;;;;;9.95;5.45;;;10.00;99.90;;;;;;5094941;28;20172;-68
2022/01/01 03:31:56;;;;;;;12.00;6.05;;;10.00;99.90;;;;;;5102990;28;20180;-68
2022/01/01 03:34:22;;;;;;;8.55;5.10;;;10.00;99.90;;;;;;5092751;28;20183;-67
2022/01/01 03:36:48;;;;;;;9.43;5.35;;;10.00;99.90;;;;;;5091695;28;20183;-68
2022/01/01 03:39:13;;;;;;;7.75;4.88;;;10.00;99.90;;;;;;5089981;28;20191;-68
2022/01/01 03:41:39;;;;;;;8.80;5.40;;;10.00;99.90;;;;;;5092411;28;20245;-67
2022/01/01 03:44:05;;;;;;;8.73;4.55;;;10.00;99.90;;;;;;5088129;28;20176;-68
2022/01/01 03:46:30;;;;;;;8.85;4.95;;;10.00;99.90;;;;;;5092012;28;20303;-67
2022/01/01 03:48:56;;;;;;;9.93;5.25;;;10.00;99.90;;;;;;5092943;28;20165;-67
2022/01/01 03:51:21;;;;;;;9.02;4.60;;;9.90;99.90;;;;;;5091562;28;20195;-67
2022/01/01 03:53:47;;;;;;;8.45;4.72;;;9.90;99.90;;;;;;5080461;28;20185;-67
2022/01/01 03:56:14;;;;;;;8.32;4.68;;;9.90;99.90;;;;;;5092460;28;20222;-67
2022/01/01 03:58:40;;;;;;;7.20;4.82;;;9.90;99.90;;;;;;5092016;28;20220;-67
2022/01/01 04:01:06;;;;;;;8.38;4.85;;;9.90;99.90;;;;;;5092503;28;20186;-67
2022/01/01 04:03:31;;;;;;;7.60;4.75;;;9.90;99.90;;;;;;5092631;28;20180;-68
2022/01/01 04:05:57;;;;;;;8.65;4.50;;;9.90;99.90;;;;;;5092090;28;20238;-67
2022/01/01 04:08:22;;;;;;;7.72;4.95;;;9.90;99.90;;;;;;5092148;28;20264;-68
2022/01/01 04:10:48;;;;;;;8.20;4.32;;;9.90;99.90;;;;;;5092058;28;20673;-68
2022/01/01 04:13:13;;;;;;;10.73;4.75;;;9.90;99.90;;;;;;5091925;28;20184;-68
2022/01/01 04:15:41;;;;;;;9.00;5.38;;;9.90;99.90;;;;;;5091121;28;20184;-67
2022/01/01 04:18:12;;;;;;;8.52;4.95;;;9.90;99.90;;;;;;5091802;28;20634;-68
2022/01/01 04:20:39;;;;;;;8.70;5.00;;;9.90;99.90;;;;;;5091918;28;20572;-67
2022/01/01 04:23:08;;;;;;;7.50;4.57;;;10.00;99.90;;;;;;5092159;28;20184;-68
2022/01/01 04:25:34;;;;;;;10.18;5.05;;;10.00;99.90;;;;;;5091884;28;20559;-67
2022/01/01 04:28:00;;;;;;;9.90;4.93;;;10.00;99.90;;;;;;5091767;28;20183;-69
2022/01/01 04:30:28;;;;;;;6.45;4.38;;;10.00;99.90;;;;;;5092170;28;20184;-67
2022/01/01 04:32:57;;;;;;;6.80;4.85;;;10.00;99.90;;;;;;5091618;28;20670;-67
2022/01/01 04:35:26;;;;;;;6.82;4.70;;;10.00;99.90;;;;;;5091459;28;20709;-68
2022/01/01 04:37:51;;;;;;;6.30;4.38;;;10.10;99.90;;;;;;5092124;28;20176;-68
2022/01/01 04:40:17;;;;;;;10.30;4.40;;;10.10;99.90;;;;;;5091671;28;20172;-68
2022/01/01 04:42:43;;;;;;;11.02;4.57;;;10.10;99.90;;;;;;5091615;28;20270;-68
2022/01/01 04:45:09;;;;;;;5.82;3.92;;;10.10;99.90;;;;;;5091510;28;20187;-68
2022/01/01 04:47:35;;;;;;;5.20;3.80;;;10.10;99.90;;;;;;5091948;28;20180;-68
2022/01/01 04:50:03;;;;;;;8.20;4.20;;;10.10;99.90;;;;;;5091479;28;20175;-69
2022/01/01 04:52:29;;;;;;;7.03;4.32;;;10.10;99.90;;;;;;5090603;28;20190;-68
2022/01/01 04:54:54;;;;;;;8.40;4.55;;;10.10;99.90;;;;;;5091758;28;20187;-67
2022/01/01 04:57:21;;;;;;;8.10;5.10;;;10.20;99.90;;;;;;5091121;28;20184;-68
2022/01/01 04:59:46;;;;;;;9.68;5.78;;;10.20;99.90;;;;;;5091855;28;20677;-68
2022/01/01 05:02:12;;;;;;;11.85;7.40;;;10.20;99.90;;;;;;5091618;28;20180;-68
2022/01/01 05:04:38;;;;;;;13.98;7.20;;;10.20;99.90;;;;;;5090293;28;20215;-68
2022/01/01 05:07:05;;;;;;;6.90;4.95;;;10.30;99.90;;;;;;5091696;28;20217;-68
2022/01/01 05:09:31;;;;;;;5.55;4.00;;;10.20;99.90;;;;;;5091493;28;20255;-67
2022/01/01 05:11:56;;;;;;;8.32;4.20;;;10.20;99.90;;;;;;5091338;28;20275;-67
2022/01/01 05:14:22;;;;;;;7.85;4.13;;;10.20;99.90;;;;;;5095500;28;20676;-68
2022/01/01 05:16:47;;;;;;;10.52;4.60;;;10.20;99.90;;;;;;5095642;28;20225;-68
2022/01/01 05:19:15;;;;;;;5.78;3.85;;;10.20;99.90;;;;;;5095393;28;20244;-67
2022/01/01 05:21:41;;;;;;;6.13;4.00;;;10.20;99.90;;;;;;5095319;28;20176;-68
2022/01/01 05:24:08;;;;;;;7.45;4.50;;;10.20;99.90;;;;;;5095657;28;20175;-67
2022/01/01 05:26:33;;;;;;;8.10;4.15;;;10.20;99.90;;;;;;5095273;28;20219;-68
2022/01/01 05:29:00;;;;;;;8.07;3.95;;;10.20;99.90;;;;;;5094924;28;20532;-68
2022/01/01 05:31:25;;;;;;;7.13;4.28;;;10.20;99.90;;;;;;5095551;28;20187;-67
2022/01/01 05:33:52;;;;;;;6.82;4.05;;;10.20;99.90;;;;;;5095086;28;20243;-67
2022/01/01 05:36:18;;;;;;;8.80;4.18;;;10.20;99.90;;;;;;5094884;28;20237;-68
2022/01/01 05:38:45;;;;;;;8.93;3.95;;;10.20;99.90;;;;;;5095367;28;20274;-67
2022/01/01 05:41:11;;;;;;;6.60;4.30;;;10.20;99.90;;;;;;5095160;28;20647;-68
2022/01/01 05:43:37;;;;;;;9.85;4.40;;;10.20;99.90;;;;;;5093466;28;20181;-68
2022/01/01 05:46:03;;;;;;;6.97;4.30;;;10.20;99.90;;;;;;5095023;28;20218;-68
2022/01/01 05:48:29;;;;;;;8.27;5.28;;;10.20;99.90;;;;;;5095317;28;20184;-68
2022/01/01 05:50:55;;;;;;;8.82;4.32;;;10.20;99.90;;;;;;5094867;28;20544;-68
2022/01/01 05:53:20;;;;;;;7.65;4.80;;;10.20;99.90;;;;;;5094901;28;20196;-68
2022/01/01 05:55:48;;;;;;;7.53;4.70;;;10.30;99.90;;;;;;5094676;28;20176;-68
2022/01/01 05:58:13;;;;;;;9.10;4.82;;;10.20;99.90;;;;;;5094102;28;20231;-68
2022/01/01 06:00:39;;;;;;;8.35;5.05;;;10.30;99.90;;;;;;5094971;28;20229;-68
2022/01/01 06:03:05;;;;;;;7.68;5.20;;;10.30;99.90;;;;;;5094830;28;20183;-68
2022/01/01 06:05:31;;;;;;;8.10;4.70;;;10.20;99.90;;;;;;5092952;28;20204;-67
2022/01/01 06:07:58;;;;;;;6.85;4.82;;;10.20;99.90;;;;;;5094962;28;20255;-66
2022/01/01 06:10:24;;;;;;;8.35;5.10;;;10.30;99.90;;;;;;5094244;28;20176;-67
2022/01/01 06:12:50;;;;;;;9.10;4.60;;;10.20;99.90;;;;;;5094369;28;20738;-67
2022/01/01 06:15:16;;;;;;;7.00;4.22;;;10.20;99.90;;;;;;5094663;28;20666;-67
2022/01/01 06:17:42;;;;;;;7.07;4.28;;;10.20;99.90;;;;;;5094247;28;20655;-68
2022/01/01 06:20:08;;;;;;;9.57;4.25;;;10.20;99.90;;;;;;5076149;28;20210;-67
2022/01/01 06:22:33;;;;;;;8.65;4.25;;;10.20;99.90;;;;;;5094602;28;20603;-67
2022/01/01 06:24:59;;;;;;;8.35;4.78;;;10.20;99.90;;;;;;5092791;28;20251;-67
2022/01/01 06:27:25;;;;;;;10.23;6.22;;;10.30;99.90;;;;;;5092617;28;20234;-67
2022/01/01 06:29:50;;;;;;;6.97;4.30;;;10.30;99.90;;;;;;5094508;28;20180;-68
2022/01/01 06:32:16;;;;;;;6.97;4.75;;;10.30;99.90;;;;;;5092599;28;20184;-68
2022/01/01 06:34:42;;;;;;;9.45;4.22;;;10.30;99.90;;;;;;5093980;28;20192;-67
2022/01/01 06:37:08;;;;;;;7.00;4.32;;;10.30;99.90;;;;;;5094202;28;20168;-67
2022/01/01 06:39:33;;;;;;;7.13;4.60;;;10.30;99.90;;;;;;5093757;28;20422;-68
2022/01/01 06:41:59;;;;;;;9.30;4.65;;;10.30;99.90;;;;;;5093921;28;20190;-68
2022/01/01 06:44:24;;;;;;;7.20;4.40;;;10.30;99.90;;;;;;5094093;28;20191;-68
2022/01/01 06:46:50;;;;;;;8.13;4.60;;;10.40;99.90;;;;;;5093808;28;20204;-68
2022/01/01 06:49:15;;;;;;;7.20;4.70;;;10.40;99.90;;;;;;5093529;28;20271;-68
2022/01/01 06:51:41;;;;;;;7.30;4.38;;;10.40;99.90;;;;;;5092146;28;20191;-68
2022/01/01 06:54:06;;;;;;;6.03;4.10;;;10.40;99.90;;;;;;5093769;28;20172;-67
2022/01/01 06:56:32;;;;;;;9.90;4.85;;;10.40;99.90;;;;;;5092978;28;20190;-66
2022/01/01 06:58:58;;;;;;;6.82;4.30;;;10.40;99.90;;;;;;5093540;28;20570;-66
2022/01/01 07:01:23;;;;;;;6.32;4.40;;;10.40;99.90;;;;;;5093195;28;20191;-66
2022/01/01 07:03:49;;;;;;;10.50;4.80;;;10.40;99.90;;;;;;5093393;28;20175;-67
2022/01/01 07:06:14;;;;;;;6.72;4.53;;;10.40;99.90;;;;;;5093498;28;20227;-67
2022/01/01 07:08:40;;;;;;;7.63;4.65;;;10.40;99.90;;;;;;5093020;28;20230;-67
2022/01/01 07:11:06;;;;;;;13.30;6.25;;;10.30;99.90;;;;;;5093604;28;20249;-67
2022/01/01 07:13:32;;;;;;;12.18;6.10;;;10.30;99.90;;;;;;5093337;28;20176;-66
2022/01/01 07:15:58;;;;;;;8.50;4.95;;;10.40;99.90;;;;;;5093117;28;20179;-67
2022/01/01 07:18:23;;;;;;;7.80;4.90;;;10.30;99.90;;;;;;5091835;28;20192;-66
2022/01/01 07:20:49;;;;;;;7.90;5.40;;;10.30;99.90;;;;;;5093278;28;20272;-66
2022/01/01 07:23:14;;;;;;;9.18;4.88;;;10.40;99.90;;;;;;5092856;28;20176;-66
2022/01/01 07:25:40;;;;;;;9.48;5.20;;;10.30;99.90;;;;;;5093059;28;20685;-67
2022/01/01 07:28:06;;;;;;;10.15;5.35;;;10.30;99.90;;;;;;5092639;28;20651;-66
2022/01/01 07:30:31;;;;;;;6.50;4.75;;;10.30;99.90;;;;;;5092981;28;20184;-66
2022/01/01 07:32:58;;;;;;;6.63;4.65;;;10.30;99.90;;;;;;5093094;28;20203;-67
2022/01/01 07:35:23;;;;;;;8.02;4.82;;;10.30;99.90;;;;;;5092779;28;20241;-67
2022/01/01 07:37:49;;;;;;;7.93;4.80;;;10.30;99.90;;;;;;5087796;28;20188;-65
2022/01/01 07:40:17;;;;;;;13.35;8.45;;;10.30;99.90;;;;;;5092552;28;20164;-66
2022/01/01 07:42:43;;;;;;;15.85;9.15;;;10.40;99.90;;;;;;5092971;28;20184;-67
2022/01/01 07:45:10;;;;;;;19.73;12.10;;;10.40;99.90;;;;;;5092332;28;20635;-66
2022/01/01 07:47:36;;;;;;;24.55;12.73;;;10.40;99.90;;;;;;5092559;28;20662;-67
2022/01/01 07:50:03;;;;;;;20.40;11.98;;;10.40;99.90;;;;;;5092634;28;20229;-67
2022/01/01 07:52:28;;;;;;;16.63;9.43;;;10.40;99.90;;;;;;5092431;28;20180;-66
2022/01/01 07:54:54;;;;;;;14.77;8.43;;;10.50;99.90;;;;;;5092378;28;20654;-67
2022/01/01 07:57:19;;;;;;;12.63;7.63;;;10.50;99.90;;;;;;5092500;28;20638;-66
2022/01/01 07:59:45;;;;;;;12.15;7.47;;;10.50;99.90;;;;;;5092374;28;20639;-67
2022/01/01 08:02:10;;;;;;;10.85;6.63;;;10.50;99.90;;;;;;5091031;28;20557;-67
2022/01/01 08:04:37;;;;;;;8.00;5.55;;;10.60;99.90;;;;;;5092327;28;20245;-68
2022/01/01 08:07:03;;;;;;;11.77;6.18;;;10.60;99.90;;;;;;5091665;28;20265;-67
2022/01/01 08:09:29;;;;;;;10.35;6.68;;;10.60;99.90;;;;;;5090725;28;20184;-67
2022/01/01 08:11:54;;;;;;;10.48;6.75;;;10.60;99.90;;;;;;5092272;28;20669;-67
2022/01/01 08:14:21;;;;;;;12.10;6.38;;;10.60;99.90;;;;;;5092456;28;20644;-67
2022/01/01 08:17:04;;;;;;;9.85;5.80;;;10.70;99.90;;;;;;5070613;28;20193;-67
2022/01/01 08:19:31;;;;;;;9.45;5.95;;;10.70;99.90;;;;;;5079291;28;20226;-67
2022/01/01 08:21:56;;;;;;;8.07;5.32;;;10.70;99.90;;;;;;5098949;28;20188;-67
2022/01/01 08:24:23;;;;;;;9.95;5.75;;;10.80;99.90;;;;;;5091968;28;20180;-67
2022/01/01 08:26:49;;;;;;;9.30;5.72;;;10.80;99.90;;;;;;5091759;28;20208;-66
2022/01/01 08:29:15;;;;;;;9.15;5.38;;;10.90;99.90;;;;;;5092876;28;20644;-66
2022/01/01 08:31:40;;;;;;;7.38;5.05;;;10.90;99.90;;;;;;5101366;28;20187;-66
2022/01/01 08:34:06;;;;;;;7.90;5.38;;;11.00;99.90;;;;;;5091061;28;20171;-66
2022/01/01 08:36:32;;;;;;;6.40;5.15;;;11.00;99.90;;;;;;5091477;28;20184;-66
2022/01/01 08:38:57;;;;;;;6.82;4.50;;;11.00;99.90;;;;;;5091915;28;20176;-66
2022/01/01 08:41:23;;;;;;;7.90;5.18;;;11.00;99.90;;;;;;5091749;28;20183;-65
2022/01/01 08:43:48;;;;;;;8.93;4.70;;;11.10;99.90;;;;;;5091621;28;20168;-66
2022/01/01 08:46:14;;;;;;;7.00;4.57;;;11.10;99.90;;;;;;5091648;28;20275;-66
2022/01/01 08:48:41;;;;;;;9.63;5.20;;;11.10;99.90;;;;;;5094846;28;20184;-66
2022/01/01 08:51:16;;;;;;;7.03;4.63;;;11.20;99.90;;;;;;5095643;28;20595;-65
2022/01/01 08:53:42;;;;;;;8.73;5.45;;;11.20;99.90;;;;;;5085394;28;20187;-64
2022/01/01 08:56:09;;;;;;;9.68;5.85;;;11.20;99.90;;;;;;5096021;28;20176;-64
2022/01/01 08:58:35;;;;;;;11.45;6.78;;;11.30;99.90;;;;;;5095873;28;20223;-64
2022/01/01 09:01:01;;;;;;;10.23;6.60;;;11.30;99.90;;;;;;5094439;28;20186;-66
2022/01/01 09:03:27;;;;;;;11.68;7.00;;;11.40;99.90;;;;;;5095953;28;20292;-62
2022/01/01 09:05:53;;;;;;;11.02;6.80;;;11.40;99.90;;;;;;5095765;28;20290;-62
2022/01/01 09:08:18;;;;;;;9.82;5.97;;;11.50;99.90;;;;;;5095786;28;20193;-63
2022/01/01 09:10:44;;;;;;;16.73;9.30;;;11.50;99.90;;;;;;5095565;28;20700;-61
2022/01/01 09:13:09;;;;;;;19.58;8.77;;;11.60;99.90;;;;;;5095355;28;20184;-63
2022/01/01 09:15:35;;;;;;;14.20;7.28;;;11.60;99.90;;;;;;5095719;28;20271;-63
2022/01/01 09:18:00;;;;;;;10.57;5.95;;;11.70;99.90;;;;;;5095109;28;20257;-63
2022/01/01 09:20:26;;;;;;;8.50;5.30;;;11.70;99.90;;;;;;5095366;28;20172;-64
2022/01/01 09:22:51;;;;;;;8.75;5.70;;;11.70;99.90;;;;;;5090363;28;20167;-64
2022/01/01 09:25:17;;;;;;;7.82;5.22;;;11.80;99.90;;;;;;5115950;28;20530;-63
2022/01/01 09:27:42;;;;;;;8.65;5.38;;;11.80;99.90;;;;;;5096727;28;20703;-63
2022/01/01 09:30:08;;;;;;;10.52;6.03;;;11.90;99.90;;;;;;5094104;28;20180;-63
2022/01/01 09:32:35;;;;;;;9.70;6.78;;;12.00;99.90;;;;;;5114682;28;20183;-63
2022/01/01 09:35:01;;;;;;;10.32;5.80;;;12.00;99.90;;;;;;5111848;28;20182;-64
2022/01/01 09:37:29;;;;;;;11.30;5.25;;;12.10;99.90;;;;;;5095343;28;20606;-64
2022/01/01 09:39:56;;;;;;;7.03;5.03;;;12.10;99.90;;;;;;5095211;28;20647;-63
2022/01/01 09:42:22;;;;;;;8.40;5.57;;;12.20;99.90;;;;;;5093701;28;20541;-63
2022/01/01 09:44:49;;;;;;;8.27;5.93;;;12.30;99.90;;;;;;5096957;28;20206;-64
2022/01/01 09:47:15;;;;;;;8.15;5.00;;;12.30;99.90;;;;;;5099855;28;20211;-63
2022/01/01 09:49:41;;;;;;;10.35;5.35;;;12.40;99.90;;;;;;5094903;28;20255;-64
2022/01/01 09:52:09;;;;;;;9.45;5.47;;;12.30;99.90;;;;;;5093522;28;20275;-63
2022/01/01 09:54:35;;;;;;;8.27;5.10;;;12.40;99.90;;;;;;5093891;28;20658;-63
2022/01/01 09:57:00;;;;;;;8.68;5.43;;;12.50;99.90;;;;;;5094149;28;20172;-63
2022/01/01 09:59:26;;;;;;;8.95;4.82;;;12.60;99.90;;;;;;5094551;28;20322;-63
2022/01/01 10:01:51;;;;;;;7.65;4.63;;;12.70;99.90;;;;;;5093705;28;20172;-64
2022/01/01 10:04:18;;;;;;;8.65;4.53;;;12.80;99.90;;;;;;5094593;28;20707;-64
2022/01/01 10:07:03;;;;;;;8.38;4.55;;;12.80;99.90;;;;;;5094679;28;20216;-63
2022/01/01 10:09:31;;;;;;;6.47;4.30;;;12.80;99.90;;;;;;5094089;28;20780;-64
2022/01/01 10:11:57;;;;;;;7.32;5.05;;;12.90;99.90;;;;;;5094637;28;20180;-64
2022/01/01 10:14:39;;;;;;;8.35;5.10;;;13.00;99.90;;;;;;5094269;28;20707;-64
2022/01/01 10:17:19;;;;;;;7.28;4.32;;;13.10;99.90;;;;;;5093974;28;20184;-64
2022/01/01 10:19:47;;;;;;;6.32;4.13;;;13.20;99.90;;;;;;5094688;28;20168;-63
2022/01/01 10:22:14;;;;;;;10.25;4.80;;;13.20;99.90;;;;;;5092710;28;20180;-64
2022/01/01 10:27:46;;;;;;;8.15;4.47;;;13.50;99.90;;;;;;5093952;28;20223;-64
2022/01/01 10:30:23;;;;;;;8.32;4.00;;;13.60;99.90;;;;;;5093904;28;20176;-64
2022/01/01 10:33:10;;;;;;;6.47;3.92;;;13.80;99.90;;;;;;5091874;28;20180;-64
2022/01/01 10:35:46;;;;;;;9.23;4.40;;;13.90;99.90;;;;;;5090751;28;20715;-64
2022/01/01 10:38:20;;;;;;;5.82;4.03;;;13.80;99.90;;;;;;5092166;28;20206;-64
2022/01/01 10:40:46;;;;;;;5.55;3.40;;;13.80;99.90;;;;;;5091867;28;20692;-63
2022/01/01 10:43:16;;;;;;;6.25;3.80;;;13.90;99.90;;;;;;5093794;28;20180;-64
2022/01/01 10:45:48;;;;;;;4.10;2.70;;;14.00;99.90;;;;;;5093595;28;20207;-63
2022/01/01 10:48:39;;;;;;;5.88;3.28;;;13.90;99.90;;;;;;5093751;28;20541;-63
2022/01/01 10:51:09;;;;;;;6.30;3.50;;;13.90;99.90;;;;;;5093520;28;20582;-63
2022/01/01 10:53:35;;;;;;;5.95;3.50;;;14.00;99.90;;;;;;5093768;28;20199;-63
2022/01/01 10:56:18;;;;;;;6.53;4.05;;;14.00;99.90;;;;;;5092005;28;20661;-64
2022/01/01 10:58:44;;;;;;;4.38;3.25;;;14.10;99.90;;;;;;5076440;28;20227;-64
2022/01/01 11:01:11;;;;;;;105.95;57.40;;;14.10;99.90;;;;;;5093464;28;20639;-64
2022/01/01 11:03:41;;;;;;;22.90;12.75;;;14.20;99.90;;;;;;5093811;28;20160;-65
2022/01/01 11:06:17;;;;;;;5.78;4.45;;;14.50;99.90;;;;;;5092546;28;20207;-65
2022/01/01 11:08:44;;;;;;;6.50;3.78;;;14.70;99.90;;;;;;5093737;28;20523;-65
2022/01/01 11:11:12;;;;;;;6.38;3.33;;;14.80;99.90;;;;;;5091847;28;20723;-64
2022/01/01 11:13:37;;;;;;;6.22;3.53;;;14.90;99.90;;;;;;5093342;28;20328;-64
2022/01/01 11:16:04;;;;;;;5.05;3.55;;;15.10;99.90;;;;;;5092548;28;20584;-65
2022/01/01 11:18:31;;;;;;;6.55;3.67;;;15.20;99.90;;;;;;5093396;28;20211;-64
2022/01/01 11:20:59;;;;;;;7.45;4.00;;;15.30;99.90;;;;;;5093293;28;20184;-64
2022/01/01 11:23:25;;;;;;;5.82;4.00;;;15.40;99.90;;;;;;5093358;28;20187;-64
2022/01/01 11:25:51;;;;;;;5.78;3.78;;;15.50;99.90;;;;;;5092602;28;20199;-64
2022/01/01 11:28:18;;;;;;;6.20;4.10;;;15.60;99.90;;;;;;5093327;28;20179;-65
2022/01/01 11:30:56;;;;;;;6.10;4.13;;;15.60;99.90;;;;;;5092227;28;20184;-65
2022/01/01 11:33:31;;;;;;;5.95;4.10;;;15.60;99.90;;;;;;5093112;28;20179;-64
2022/01/01 11:35:58;;;;;;;5.38;3.60;;;15.70;99.90;;;;;;5093086;28;20179;-64
2022/01/01 11:38:29;;;;;;;6.13;3.80;;;15.80;99.90;;;;;;5094404;28;20638;-64
2022/01/01 11:40:57;;;;;;;5.55;3.92;;;15.80;99.90;;;;;;5091336;28;20199;-64
2022/01/01 11:43:32;;;;;;;6.93;4.30;;;15.90;99.90;;;;;;5092943;28;20631;-64
2022/01/01 11:45:59;;;;;;;7.85;4.00;;;16.00;99.90;;;;;;5092147;28;20260;-64
2022/01/01 11:48:31;;;;;;;5.97;3.95;;;16.00;99.90;;;;;;5092347;28;20188;-65
2022/01/01 11:51:17;;;;;;;8.60;4.20;;;16.00;99.90;;;;;;5092775;28;20201;-64
2022/01/01 11:54:28;;;;;;;7.75;4.18;;;16.00;99.90;;;;;;5092323;28;20191;-64
2022/01/01 11:56:58;;;;;;;7.70;3.80;;;16.00;99.90;;;;;;5088922;28;20671;-65
2022/01/01 11:59:32;;;;;;;4.82;3.30;;;15.90;99.90;;;;;;5092582;28;20227;-64
2022/01/01 12:01:57;;;;;;;5.95;3.45;;;15.90;99.90;;;;;;5091497;28;20180;-64
2022/01/01 12:04:43;;;;;;;6.75;3.58;;;15.90;99.90;;;;;;5092528;28;20180;-64
2022/01/01 12:07:17;;;;;;;4.45;2.90;;;15.90;99.90;;;;;;5092457;28;20207;-64
2022/01/01 12:10:05;;;;;;;6.75;3.60;;;15.90;99.90;;;;;;5092457;28;20176;-64
2022/01/01 12:12:58;;;;;;;6.15;3.33;;;15.90;99.90;;;;;;5090836;28;20205;-65
2022/01/01 12:15:28;;;;;;;4.85;3.47;;;15.90;99.90;;;;;;5092130;28;20669;-64
2022/01/01 12:18:07;;;;;;;5.03;3.30;;;15.90;99.90;;;;;;5090471;28;20214;-65
2022/01/01 12:20:46;;;;;;;4.70;3.50;;;15.90;99.90;;;;;;5092258;28;20175;-65
2022/01/01 12:23:23;;;;;;;7.32;3.40;;;15.90;99.90;;;;;;5072132;28;20187;-66
2022/01/01 12:25:51;;;;;;;5.22;3.67;;;15.90;99.90;;;;;;5081923;28;20211;-65
2022/01/01 12:28:27;;;;;;;7.35;3.35;;;15.90;99.90;;;;;;5091722;28;20667;-65
2022/01/01 12:30:55;;;;;;;4.88;3.05;;;15.90;99.90;;;;;;5091547;28;20646;-65
2022/01/01 12:33:39;;;;;;;5.88;3.35;;;16.00;99.90;;;;;;5091937;28;20261;-65
2022/01/01 12:36:14;;;;;;;4.47;3.00;;;16.00;99.90;;;;;;5091397;28;20180;-64
2022/01/01 12:39:07;;;;;;;4.93;2.97;;;16.00;99.90;;;;;;5085903;28;20553;-65
2022/01/01 12:41:44;;;;;;;4.20;2.38;;;16.00;99.90;;;;;;5091759;28;20176;-65
2022/01/01 12:44:15;;;;;;;4.97;2.72;;;16.00;99.90;;;;;;5091779;28;20167;-65
2022/01/01 12:46:45;;;;;;;3.30;2.25;;;15.90;99.90;;;;;;5091166;28;20307;-65
2022/01/01 12:49:11;;;;;;;4.75;2.63;;;15.90;99.90;;;;;;5091494;28;20178;-65
2022/01/01 12:51:38;;;;;;;4.03;2.55;;;15.80;99.90;;;;;;5092050;28;20194;-66